createdAt,value
2018-08-09T00:01:45.131Z,9.97
2018-08-09T00:04:13.785Z,9.83
2018-08-09T00:06:42.136Z,12.60
2018-08-09T00:09:10.699Z,9.47
2018-08-09T00:11:39.699Z,9.20
2018-08-09T00:14:09.479Z,9.13
2018-08-09T00:16:38.065Z,9.07
2018-08-09T00:19:06.620Z,9.40
2018-08-09T00:21:35.415Z,9.27
2018-08-09T00:24:05.276Z,9.37
2018-08-09T00:26:33.629Z,8.50
2018-08-09T00:29:01.966Z,9.87
2018-08-09T00:31:30.351Z,9.30
2018-08-09T00:33:58.751Z,8.23
2018-08-09T00:36:27.107Z,9.33
2018-08-09T00:38:56.425Z,10.10
2018-08-09T00:41:24.775Z,8.40
2018-08-09T00:43:53.329Z,8.77
2018-08-09T00:46:21.959Z,9.13
2018-08-09T00:48:50.329Z,8.93
2018-08-09T00:51:18.707Z,8.23
2018-08-09T00:53:47.075Z,9.70
2018-08-09T00:56:15.452Z,8.83
2018-08-09T00:58:43.835Z,8.70
2018-08-09T01:01:12.582Z,9.20
2018-08-09T01:03:41.534Z,8.90
2018-08-09T01:06:09.858Z,8.47
2018-08-09T01:08:38.596Z,8.40
2018-08-09T01:11:07.203Z,9.23
2018-08-09T01:13:35.561Z,8.27
2018-08-09T01:16:04.424Z,10.07
2018-08-09T01:18:32.792Z,8.87
2018-08-09T01:21:01.151Z,10.17
2018-08-09T01:23:29.502Z,8.27
2018-08-09T01:25:59.376Z,9.63
2018-08-09T01:28:27.748Z,8.90
2018-08-09T01:30:56.066Z,8.50
2018-08-09T01:33:24.432Z,8.30
2018-08-09T01:35:52.963Z,9.30
2018-08-09T01:38:21.784Z,8.40
2018-08-09T01:40:51.167Z,7.30
2018-08-09T01:43:31.189Z,8.73
2018-08-09T01:46:00.121Z,8.00
2018-08-09T01:48:28.475Z,9.20
2018-08-09T01:50:57.451Z,8.80
2018-08-09T01:53:25.811Z,8.23
2018-08-09T01:55:54.146Z,8.37
2018-08-09T01:58:22.519Z,8.63
2018-08-09T02:00:50.918Z,8.10
2018-08-09T02:03:19.270Z,7.60
2018-08-09T02:05:48.383Z,8.80
2018-08-09T02:08:17.107Z,7.93
2018-08-09T02:10:45.470Z,7.83
2018-08-09T02:13:13.821Z,9.60
2018-08-09T02:15:42.471Z,7.73
2018-08-09T02:18:10.801Z,7.20
2018-08-09T02:20:39.110Z,7.43
2018-08-09T02:23:07.399Z,9.10
2018-08-09T02:25:35.999Z,8.33
2018-08-09T02:28:04.323Z,8.07
2018-08-09T02:30:32.643Z,8.03
2018-08-09T02:33:01.635Z,7.73
2018-08-09T02:35:29.956Z,7.57
2018-08-09T02:37:58.528Z,7.60
2018-08-09T02:40:28.163Z,8.83
2018-08-09T02:42:56.735Z,8.13
2018-08-09T02:45:26.143Z,8.43
2018-08-09T02:47:54.451Z,8.63
2018-08-09T02:50:22.798Z,7.97
2018-08-09T02:52:51.844Z,10.63
2018-08-09T02:55:20.193Z,9.10
2018-08-09T02:57:49.188Z,8.97
2018-08-09T03:00:17.542Z,8.20
2018-08-09T03:02:46.246Z,7.83
2018-08-09T03:05:14.604Z,8.00
2018-08-09T03:07:42.932Z,7.73
2018-08-09T03:10:11.271Z,8.63
2018-08-09T03:12:39.546Z,10.50
2018-08-09T03:15:08.241Z,9.10
2018-08-09T03:17:36.543Z,8.30
2018-08-09T03:20:04.923Z,10.23
2018-08-09T03:22:33.211Z,9.57
2018-08-09T03:25:01.691Z,9.70
2018-08-09T03:27:29.990Z,9.13
2018-08-09T03:29:58.517Z,8.80
2018-08-09T03:32:26.810Z,8.40
2018-08-09T03:34:56.043Z,8.53
2018-08-09T03:37:24.348Z,8.40
2018-08-09T03:39:52.662Z,9.03
2018-08-09T03:42:22.244Z,8.53
2018-08-09T03:44:50.567Z,9.67
2018-08-09T03:47:18.903Z,8.50
2018-08-09T03:49:48.130Z,8.50
2018-08-09T03:52:16.455Z,8.40
2018-08-09T03:54:45.239Z,9.70
2018-08-09T03:57:14.582Z,9.00
2018-08-09T03:59:42.970Z,10.13
2018-08-09T04:02:11.215Z,9.80
2018-08-09T04:04:39.551Z,11.20
2018-08-09T04:07:07.887Z,10.17
2018-08-09T04:09:36.198Z,10.27
2018-08-09T04:12:04.544Z,10.43
2018-08-09T04:14:32.842Z,11.80
2018-08-09T04:17:05.300Z,8.73
2018-08-09T04:19:33.693Z,8.93
2018-08-09T04:22:02.019Z,9.63
2018-08-09T04:24:30.348Z,10.33
2018-08-09T04:26:58.655Z,11.67
2018-08-09T04:29:26.959Z,67.00
2018-08-09T04:31:55.624Z,13.83
2018-08-09T04:34:23.972Z,12.90
2018-08-09T04:36:52.303Z,12.50
2018-08-09T04:39:21.234Z,17.67
2018-08-09T04:41:49.567Z,15.57
2018-08-09T04:44:17.882Z,17.20
2018-08-09T04:46:46.191Z,16.50
2018-08-09T04:49:14.493Z,15.87
2018-08-09T04:51:42.807Z,15.90
2018-08-09T04:54:11.099Z,17.07
2018-08-09T04:56:39.412Z,16.60
2018-08-09T04:59:07.723Z,15.63
2018-08-09T05:01:36.022Z,15.07
2018-08-09T05:04:04.316Z,15.00
2018-08-09T05:06:32.635Z,15.03
2018-08-09T05:09:01.339Z,14.77
2018-08-09T05:11:29.646Z,14.90
2018-08-09T05:13:57.964Z,14.30
2018-08-09T05:16:26.628Z,15.13
2018-08-09T05:18:54.926Z,14.90
2018-08-09T05:21:23.246Z,14.07
2018-08-09T05:23:51.546Z,13.63
2018-08-09T05:26:19.943Z,13.57
2018-08-09T05:28:48.227Z,14.13
2018-08-09T05:31:16.531Z,13.97
2018-08-09T05:33:44.940Z,14.30
2018-08-09T05:36:13.367Z,13.30
2018-08-09T05:38:41.658Z,13.37
2018-08-09T05:41:09.983Z,12.87
2018-08-09T05:43:38.717Z,13.23
2018-08-09T05:46:07.718Z,14.73
2018-08-09T05:48:36.012Z,13.30
2018-08-09T05:51:04.774Z,13.87
2018-08-09T05:53:33.110Z,15.77
2018-08-09T05:56:01.423Z,15.63
2018-08-09T05:58:29.727Z,16.03
2018-08-09T06:00:58.069Z,16.47
2018-08-09T06:03:26.380Z,17.80
2018-08-09T06:05:55.180Z,16.97
2018-08-09T06:08:23.495Z,17.47
2018-08-09T06:10:51.819Z,20.60
2018-08-09T06:13:20.170Z,20.13
2018-08-09T06:15:49.503Z,18.17
2018-08-09T06:18:18.026Z,20.47
2018-08-09T06:20:46.351Z,20.13
2018-08-09T06:23:14.688Z,20.00
2018-08-09T06:25:43.035Z,19.10
2018-08-09T06:28:11.336Z,19.10
2018-08-09T06:30:40.072Z,19.50
2018-08-09T06:33:08.634Z,18.83
2018-08-09T06:35:36.979Z,18.20
2018-08-09T06:38:05.347Z,18.43
2018-08-09T06:40:33.992Z,18.13
2018-08-09T06:43:02.313Z,18.33
2018-08-09T06:45:30.643Z,16.57
2018-08-09T06:47:58.978Z,16.43
2018-08-09T06:50:27.311Z,16.37
2018-08-09T06:52:55.631Z,17.00
2018-08-09T06:55:24.403Z,16.40
2018-08-09T06:57:52.727Z,16.33
2018-08-09T07:00:21.424Z,16.00
2018-08-09T07:02:50.127Z,15.57
2018-08-09T07:05:18.447Z,15.37
2018-08-09T07:07:46.834Z,14.87
2018-08-09T07:10:15.142Z,13.53
2018-08-09T07:12:43.516Z,14.73
2018-08-09T07:15:13.011Z,14.30
2018-08-09T07:17:41.926Z,14.23
2018-08-09T07:20:10.767Z,14.90
2018-08-09T07:22:40.431Z,15.30
2018-08-09T07:25:09.123Z,14.20
2018-08-09T07:27:37.618Z,13.03
2018-08-09T07:30:07.804Z,13.77
2018-08-09T07:32:36.159Z,13.30
2018-08-09T07:35:04.633Z,14.67
2018-08-09T07:37:32.937Z,12.80
2018-08-09T07:40:01.286Z,12.07
2018-08-09T07:42:29.607Z,11.57
2018-08-09T07:44:57.947Z,12.33
2018-08-09T07:47:26.882Z,11.50
2018-08-09T07:49:55.499Z,15.30
2018-08-09T07:52:23.829Z,11.93
2018-08-09T07:54:52.523Z,10.63
2018-08-09T07:57:20.860Z,10.43
2018-08-09T07:59:49.182Z,9.60
2018-08-09T08:02:17.489Z,9.33
2018-08-09T08:04:45.782Z,8.53
2018-08-09T08:07:14.117Z,8.67
2018-08-09T08:09:42.412Z,8.53
2018-08-09T08:12:10.718Z,8.37
2018-08-09T08:14:39.003Z,8.17
2018-08-09T08:17:07.335Z,7.97
2018-08-09T08:19:35.836Z,10.07
2018-08-09T08:22:04.407Z,7.27
2018-08-09T08:24:32.693Z,7.90
2018-08-09T08:27:01.380Z,10.00
2018-08-09T08:29:30.370Z,9.33
2018-08-09T08:31:59.087Z,7.20
2018-08-09T08:34:27.459Z,10.43
2018-08-09T08:36:56.095Z,8.30
2018-08-09T08:39:24.391Z,8.33
2018-08-09T08:41:52.745Z,9.07
2018-08-09T08:44:21.042Z,7.83
2018-08-09T08:46:49.379Z,10.50
2018-08-09T08:49:18.067Z,6.97
2018-08-09T08:51:46.379Z,7.63
2018-08-09T08:54:14.871Z,8.50
2018-08-09T08:56:43.207Z,9.70
2018-08-09T08:59:11.519Z,8.00
2018-08-09T09:01:39.826Z,8.93
2018-08-09T09:04:08.557Z,8.10
2018-08-09T09:06:36.843Z,8.43
2018-08-09T09:09:09.612Z,7.07
2018-08-09T09:11:37.939Z,9.37
2018-08-09T09:14:06.287Z,7.67
2018-08-09T09:16:36.012Z,7.93
2018-08-09T09:19:04.422Z,8.53
2018-08-09T09:21:32.710Z,10.50
2018-08-09T09:24:01.035Z,6.97
2018-08-09T09:26:29.350Z,8.07
2018-08-09T09:28:57.650Z,7.30
2018-08-09T09:31:26.631Z,6.47
2018-08-09T09:33:54.963Z,8.30
2018-08-09T09:36:23.703Z,8.80
2018-08-09T09:38:52.023Z,8.53
2018-08-09T09:41:20.365Z,5.93
2018-08-09T09:43:48.658Z,7.33
2018-08-09T09:46:17.004Z,10.20
2018-08-09T09:48:45.314Z,11.97
2018-08-09T09:51:13.631Z,8.73
2018-08-09T09:53:41.979Z,7.67
2018-08-09T09:56:10.324Z,11.07
2018-08-09T09:58:39.082Z,8.90
2018-08-09T10:01:12.735Z,8.87
2018-08-09T10:03:41.080Z,8.47
2018-08-09T10:06:09.392Z,9.27
2018-08-09T10:08:37.707Z,9.07
2018-08-09T10:11:05.985Z,9.10
2018-08-09T10:13:34.287Z,8.57
2018-08-09T10:16:02.579Z,8.83
2018-08-09T10:18:30.918Z,10.73
2018-08-09T10:20:59.211Z,8.30
2018-08-09T10:23:27.943Z,8.90
2018-08-09T10:25:56.246Z,8.13
2018-08-09T10:28:24.927Z,7.77
2018-08-09T10:30:53.223Z,7.03
2018-08-09T10:33:21.532Z,9.43
2018-08-09T10:35:50.116Z,5.77
2018-08-09T10:38:18.442Z,6.07
2018-08-09T10:40:46.773Z,6.77
2018-08-09T10:43:15.098Z,9.37
2018-08-09T10:45:43.904Z,8.60
2018-08-09T10:48:12.263Z,6.93
2018-08-09T10:50:40.828Z,12.50
2018-08-09T10:53:09.167Z,9.63
2018-08-09T10:55:37.472Z,9.23
2018-08-09T10:58:05.895Z,8.93
2018-08-09T11:00:34.252Z,9.10
2018-08-09T11:03:02.574Z,8.07
2018-08-09T11:05:31.385Z,11.83
2018-08-09T11:07:59.702Z,10.20
2018-08-09T11:10:28.023Z,11.53
2018-08-09T11:12:56.348Z,13.17
2018-08-09T11:15:24.654Z,8.17
2018-08-09T11:17:52.967Z,8.37
2018-08-09T11:20:21.298Z,8.17
2018-08-09T11:22:49.623Z,9.67
2018-08-09T11:25:17.936Z,9.40
2018-08-09T11:27:46.727Z,10.17
2018-08-09T11:30:15.103Z,8.50
2018-08-09T11:32:44.487Z,10.17
2018-08-09T11:35:13.103Z,10.87
2018-08-09T11:37:41.779Z,9.00
2018-08-09T11:40:10.135Z,9.00
2018-08-09T11:42:38.496Z,8.17
2018-08-09T11:45:07.387Z,9.93
2018-08-09T11:47:35.945Z,8.70
2018-08-09T11:50:04.710Z,9.17
2018-08-09T11:52:33.048Z,9.20
2018-08-09T11:55:01.500Z,7.83
2018-08-09T11:57:30.220Z,8.70
2018-08-09T11:59:58.627Z,7.93
2018-08-09T12:02:27.003Z,10.13
2018-08-09T12:04:55.334Z,8.70
2018-08-09T12:07:24.968Z,8.80
2018-08-09T12:09:53.340Z,9.80
2018-08-09T12:12:21.698Z,14.53
2018-08-09T12:14:50.073Z,8.00
2018-08-09T12:17:18.411Z,10.60
2018-08-09T12:19:46.789Z,11.97
2018-08-09T12:22:15.394Z,9.97
2018-08-09T12:24:43.778Z,9.77
2018-08-09T12:27:12.174Z,10.37
2018-08-09T12:29:40.569Z,11.10
2018-08-09T12:32:08.947Z,9.80
2018-08-09T12:34:37.356Z,11.13
2018-08-09T12:37:05.851Z,14.23
2018-08-09T12:39:34.286Z,13.13
2018-08-09T12:42:02.643Z,13.33
2018-08-09T12:44:31.075Z,8.57
2018-08-09T12:46:59.611Z,11.87
2018-08-09T12:49:28.508Z,9.73
2018-08-09T12:51:56.893Z,8.67
2018-08-09T12:54:25.300Z,8.10
2018-08-09T12:56:53.716Z,8.13
2018-08-09T12:59:22.138Z,8.67
2018-08-09T13:01:50.975Z,14.13
2018-08-09T13:04:19.342Z,8.60
2018-08-09T13:06:48.633Z,12.33
2018-08-09T13:09:17.383Z,8.77
2018-08-09T13:11:46.003Z,7.50
2018-08-09T13:14:14.419Z,8.90
2018-08-09T13:16:42.772Z,7.93
2018-08-09T13:19:11.200Z,6.93
2018-08-09T13:21:39.564Z,7.70
2018-08-09T13:24:08.003Z,8.03
2018-08-09T13:26:37.028Z,8.17
2018-08-09T13:29:05.683Z,6.20
2018-08-09T13:31:34.385Z,6.90
2018-08-09T13:34:02.807Z,7.77
2018-08-09T13:36:31.527Z,6.23
2018-08-09T13:38:59.938Z,8.93
2018-08-09T13:41:28.313Z,5.77
2018-08-09T13:43:56.694Z,7.13
2018-08-09T13:46:25.423Z,6.50
2018-08-09T13:48:53.819Z,6.00
2018-08-09T13:51:22.263Z,7.63
2018-08-09T13:53:50.971Z,8.80
2018-08-09T13:56:19.328Z,5.33
2018-08-09T13:58:47.993Z,7.10
2018-08-09T14:01:16.375Z,7.30
2018-08-09T14:03:45.047Z,6.67
2018-08-09T14:06:13.401Z,6.40
2018-08-09T14:08:41.783Z,5.80
2018-08-09T14:11:10.196Z,6.93
2018-08-09T14:13:38.577Z,5.47
2018-08-09T14:16:07.438Z,6.50
2018-08-09T14:18:35.792Z,7.37
2018-08-09T14:21:04.190Z,5.93
2018-08-09T14:23:32.527Z,5.30
2018-08-09T14:26:00.929Z,6.57
2018-08-09T14:28:29.287Z,6.20
2018-08-09T14:30:58.139Z,5.23
2018-08-09T14:33:26.900Z,5.53
2018-08-09T14:35:55.718Z,6.33
2018-08-09T14:38:24.067Z,8.87
2018-08-09T14:40:52.567Z,6.63
2018-08-09T14:43:20.966Z,8.73
2018-08-09T14:45:49.353Z,6.90
2018-08-09T14:48:17.745Z,6.83
2018-08-09T14:50:46.107Z,7.90
2018-08-09T14:53:14.835Z,6.60
2018-08-09T14:55:43.647Z,7.23
2018-08-09T14:58:12.080Z,6.03
2018-08-09T15:00:40.690Z,7.77
2018-08-09T15:03:09.064Z,6.40
2018-08-09T15:05:37.566Z,8.53
2018-08-09T15:08:06.307Z,7.40
2018-08-09T15:10:34.667Z,6.40
2018-08-09T15:13:03.057Z,6.33
2018-08-09T15:15:31.499Z,5.47
2018-08-09T15:17:59.948Z,4.90
2018-08-09T15:20:28.367Z,6.03
2018-08-09T15:22:57.595Z,7.63
2018-08-09T15:25:25.942Z,7.20
2018-08-09T15:27:54.295Z,3.70
2018-08-09T15:30:22.652Z,3.73
2018-08-09T15:32:50.974Z,3.70
2018-08-09T15:35:19.371Z,5.37
2018-08-09T15:37:47.691Z,5.30
2018-08-09T15:40:16.311Z,3.80
2018-08-09T15:42:44.747Z,3.50
2018-08-09T15:45:14.534Z,3.40
2018-08-09T15:47:43.179Z,3.37
2018-08-09T15:50:16.218Z,3.73
2018-08-09T15:52:44.538Z,3.57
2018-08-09T15:55:13.782Z,3.90
2018-08-09T15:57:42.145Z,3.20
2018-08-09T16:00:17.617Z,3.83
2018-08-09T16:02:46.179Z,2.97
2018-08-09T16:05:14.549Z,2.67
2018-08-09T16:07:44.319Z,2.90
2018-08-09T16:10:14.141Z,3.43
2018-08-09T16:12:42.486Z,3.20
2018-08-09T16:15:13.812Z,2.83
2018-08-09T16:17:42.375Z,3.03
2018-08-09T16:20:11.574Z,2.80
2018-08-09T16:22:39.951Z,2.43
2018-08-09T16:25:15.711Z,2.80
2018-08-09T16:27:45.132Z,3.70
2018-08-09T16:30:15.690Z,2.63
2018-08-09T16:32:44.175Z,2.17
2018-08-09T16:35:13.047Z,3.17
2018-08-09T16:37:41.959Z,2.83
2018-08-09T16:40:13.076Z,2.23
2018-08-09T16:42:42.234Z,2.53
2018-08-09T16:45:11.384Z,2.03
2018-08-09T16:47:40.054Z,2.70
2018-08-09T16:50:09.799Z,2.80
2018-08-09T16:52:38.135Z,1.97
2018-08-09T16:55:08.474Z,3.43
2018-08-09T16:57:37.203Z,8.80
2018-08-09T17:00:08.018Z,2.90
2018-08-09T17:02:36.802Z,3.50
2018-08-09T17:05:06.514Z,2.73
2018-08-09T17:07:34.870Z,2.23
2018-08-09T17:10:03.231Z,3.77
2018-08-09T17:12:31.579Z,14.03
2018-08-09T17:14:59.919Z,4.20
2018-08-09T17:17:28.671Z,3.17
2018-08-09T17:19:57.890Z,2.67
2018-08-09T17:22:26.237Z,2.90
2018-08-09T17:24:54.591Z,2.40
2018-08-09T17:27:22.963Z,2.43
2018-08-09T17:29:51.307Z,2.87
2018-08-09T17:32:19.691Z,1.47
2018-08-09T17:34:48.262Z,1.83
2018-08-09T17:37:16.672Z,2.70
2018-08-09T17:39:44.988Z,3.60
2018-08-09T17:42:13.327Z,4.60
2018-08-09T17:44:41.674Z,9.03
2018-08-09T17:47:10.048Z,2.10
2018-08-09T17:49:38.582Z,2.63
2018-08-09T17:52:06.915Z,2.20
2018-08-09T17:54:35.238Z,2.87
2018-08-09T17:57:03.600Z,2.53
2018-08-09T17:59:32.100Z,3.07
2018-08-09T18:02:00.423Z,1.80
2018-08-09T18:04:29.412Z,2.93
2018-08-09T18:06:57.790Z,2.47
2018-08-09T18:09:26.139Z,2.53
2018-08-09T18:11:54.872Z,2.60
2018-08-09T18:14:23.960Z,2.30
2018-08-09T18:16:53.023Z,1.70
2018-08-09T18:19:21.347Z,3.37
2018-08-09T18:21:49.682Z,4.13
2018-08-09T18:24:18.003Z,3.37
2018-08-09T18:26:46.379Z,2.40
2018-08-09T18:29:17.243Z,2.37
2018-08-09T18:31:46.620Z,3.23
2018-08-09T18:34:15.306Z,2.30
2018-08-09T18:36:44.554Z,1.93
2018-08-09T18:39:13.652Z,3.10
2018-08-09T18:41:42.040Z,2.17
2018-08-09T18:44:10.399Z,1.93
2018-08-09T18:46:38.731Z,2.70
2018-08-09T18:49:07.556Z,2.27
2018-08-09T18:51:37.665Z,3.00
2018-08-09T18:54:08.095Z,2.03
2018-08-09T18:56:36.427Z,2.47
2018-08-09T18:59:04.771Z,2.00
2018-08-09T19:01:33.152Z,3.20
2018-08-09T19:04:01.504Z,3.17
2018-08-09T19:06:29.831Z,2.90
2018-08-09T19:08:58.368Z,2.20
2018-08-09T19:11:26.871Z,2.77
2018-08-09T19:13:55.213Z,3.07
2018-08-09T19:16:23.522Z,2.53
2018-08-09T19:18:51.915Z,1.90
2018-08-09T19:21:20.267Z,2.47
2018-08-09T19:23:48.618Z,2.23
2018-08-09T19:26:17.404Z,2.63
2018-08-09T19:28:45.746Z,1.83
2018-08-09T19:31:14.116Z,2.27
2018-08-09T19:33:42.470Z,2.27
2018-08-09T19:36:10.852Z,2.10
2018-08-09T19:38:39.240Z,2.10
2018-08-09T19:41:07.650Z,2.70
2018-08-09T19:43:35.994Z,3.63
2018-08-09T19:46:04.347Z,1.87
2018-08-09T19:48:32.987Z,2.40
2018-08-09T19:51:01.376Z,1.90
2018-08-09T19:53:29.722Z,2.40
2018-08-09T19:55:58.052Z,1.93
2018-08-09T19:58:26.378Z,2.30
2018-08-09T20:00:54.722Z,1.90
2018-08-09T20:03:23.318Z,2.83
2018-08-09T20:05:51.657Z,2.33
2018-08-09T20:08:20.034Z,1.73
2018-08-09T20:10:48.767Z,1.80
2018-08-09T20:13:17.076Z,2.13
2018-08-09T20:15:45.430Z,1.67
2018-08-09T20:18:13.762Z,2.10
2018-08-09T20:20:42.207Z,2.27
2018-08-09T20:23:10.587Z,2.83
2018-08-09T20:25:38.901Z,2.10
2018-08-09T20:28:07.261Z,2.50
2018-08-09T20:30:35.627Z,1.60
2018-08-09T20:33:03.971Z,2.03
2018-08-09T20:35:32.308Z,2.43
2018-08-09T20:38:00.622Z,2.37
2018-08-09T20:40:28.951Z,13.73
2018-08-09T20:42:57.311Z,2.20
2018-08-09T20:45:25.995Z,2.53
2018-08-09T20:47:54.335Z,3.33
2018-08-09T20:50:24.394Z,1.53
2018-08-09T20:52:52.751Z,2.00
2018-08-09T20:55:21.070Z,1.40
2018-08-09T20:57:50.170Z,1.40
2018-08-09T21:00:22.616Z,1.90
2018-08-09T21:02:52.767Z,1.50
2018-08-09T21:05:23.647Z,5.53
2018-08-09T21:07:53.042Z,2.83
2018-08-09T21:10:21.466Z,2.03
2018-08-09T21:12:49.809Z,2.90
2018-08-09T21:15:19.018Z,2.00
2018-08-09T21:17:47.359Z,1.60
2018-08-09T21:20:15.910Z,1.97
2018-08-09T21:22:45.630Z,2.00
2018-08-09T21:25:14.245Z,1.60
2018-08-09T21:27:42.826Z,1.73
2018-08-09T21:30:13.420Z,1.77
2018-08-09T21:32:41.758Z,1.80
2018-08-09T21:35:10.662Z,2.80
2018-08-09T21:37:39.623Z,1.90
2018-08-09T21:40:09.107Z,1.50
2018-08-09T21:42:37.439Z,1.20
2018-08-09T21:45:14.591Z,1.30
2018-08-09T21:47:43.235Z,1.30
2018-08-09T21:50:14.869Z,1.53
2018-08-09T21:52:43.282Z,2.13
2018-08-09T21:55:12.987Z,1.70
2018-08-09T21:57:41.885Z,1.87
2018-08-09T22:00:21.058Z,1.43
2018-08-09T22:02:49.374Z,2.10
2018-08-09T22:05:22.974Z,1.80
2018-08-09T22:07:56.859Z,4.13
2018-08-09T22:10:30.491Z,2.33
2018-08-09T22:13:04.160Z,1.70
2018-08-09T22:15:37.766Z,1.60
2018-08-09T22:18:11.903Z,1.47
2018-08-09T22:22:50.579Z,2.17
2018-08-09T22:25:18.899Z,2.17
2018-08-09T22:27:47.226Z,1.40
2018-08-09T22:30:16.735Z,1.50
2018-08-09T22:32:45.047Z,1.83
2018-08-09T22:35:13.391Z,1.53
2018-08-09T22:37:41.706Z,1.03
2018-08-09T22:40:10.043Z,0.90
2018-08-09T22:42:38.355Z,1.60
2018-08-09T22:45:06.690Z,1.60
2018-08-09T22:47:35.319Z,0.93
2018-08-09T22:50:04.970Z,1.37
2018-08-09T22:52:33.282Z,1.97
2018-08-09T22:55:01.588Z,1.10
2018-08-09T22:57:30.254Z,0.50
2018-08-09T22:59:58.595Z,0.67
2018-08-09T23:02:26.934Z,0.93
2018-08-09T23:04:55.255Z,1.47
2018-08-09T23:07:23.566Z,0.50
2018-08-09T23:09:51.939Z,0.73
2018-08-09T23:12:20.246Z,1.23
2018-08-09T23:14:48.598Z,0.80
2018-08-09T23:17:16.911Z,0.90
2018-08-09T23:19:45.260Z,0.57
2018-08-09T23:22:17.636Z,1.47
2018-08-09T23:24:45.955Z,1.00
2018-08-09T23:27:14.259Z,0.90
2018-08-09T23:29:42.572Z,0.70
2018-08-09T23:32:11.223Z,0.83
2018-08-09T23:34:39.571Z,0.97
2018-08-09T23:37:07.896Z,1.50
2018-08-09T23:39:36.312Z,1.13
2018-08-09T23:42:04.599Z,0.83
2018-08-09T23:44:32.902Z,0.83
2018-08-09T23:47:01.215Z,1.23
2018-08-09T23:49:29.531Z,2.70
2018-08-09T23:51:57.838Z,0.50
2018-08-09T23:54:26.190Z,0.50
2018-08-09T23:56:54.515Z,0.83
2018-08-09T23:59:22.862Z,1.70
